sensor_id;sensor_type;location;lat;lon;timestamp;temperature;humidity
4425;DHT22;2225;53.568;13.266;2022-07-04T00:00:51;22.80;91.40
4425;DHT22;2225;53.568;13.266;2022-07-04T00:03:18;22.80;91.70
4425;DHT22;2225;53.568;13.266;2022-07-04T00:05:45;22.80;91.70
4425;DHT22;2225;53.568;13.266;2022-07-04T00:08:12;22.80;91.70
4425;DHT22;2225;53.568;13.266;2022-07-04T00:10:39;22.80;91.60
4425;DHT22;2225;53.568;13.266;2022-07-04T00:13:06;22.90;91.50
4425;DHT22;2225;53.568;13.266;2022-07-04T00:15:33;22.90;91.60
4425;DHT22;2225;53.568;13.266;2022-07-04T00:18:00;22.90;91.70
4425;DHT22;2225;53.568;13.266;2022-07-04T00:20:27;22.90;91.90
4425;DHT22;2225;53.568;13.266;2022-07-04T00:22:54;22.90;92.00
4425;DHT22;2225;53.568;13.266;2022-07-04T00:25:21;22.80;92.20
4425;DHT22;2225;53.568;13.266;2022-07-04T00:27:48;22.80;92.50
4425;DHT22;2225;53.568;13.266;2022-07-04T00:30:15;22.50;92.50
4425;DHT22;2225;53.568;13.266;2022-07-04T00:32:42;22.70;92.60
4425;DHT22;2225;53.568;13.266;2022-07-04T00:35:09;22.70;92.70
4425;DHT22;2225;53.568;13.266;2022-07-04T00:37:36;22.70;92.60
4425;DHT22;2225;53.568;13.266;2022-07-04T00:40:03;22.70;92.40
4425;DHT22;2225;53.568;13.266;2022-07-04T00:42:31;22.60;92.70
4425;DHT22;2225;53.568;13.266;2022-07-04T00:44:58;22.60;92.10
4425;DHT22;2225;53.568;13.266;2022-07-04T00:47:25;22.60;92.20
4425;DHT22;2225;53.568;13.266;2022-07-04T00:49:52;22.60;92.00
4425;DHT22;2225;53.568;13.266;2022-07-04T00:52:19;22.60;92.00
4425;DHT22;2225;53.568;13.266;2022-07-04T00:54:47;22.60;92.10
4425;DHT22;2225;53.568;13.266;2022-07-04T00:57:15;22.60;92.30
4425;DHT22;2225;53.568;13.266;2022-07-04T00:59:42;22.60;92.10
4425;DHT22;2225;53.568;13.266;2022-07-04T01:02:09;22.60;92.10
4425;DHT22;2225;53.568;13.266;2022-07-04T01:04:36;22.60;92.00
4425;DHT22;2225;53.568;13.266;2022-07-04T01:07:04;22.60;92.20
4425;DHT22;2225;53.568;13.266;2022-07-04T01:09:31;22.50;92.10
4425;DHT22;2225;53.568;13.266;2022-07-04T01:11:58;22.50;92.10
4425;DHT22;2225;53.568;13.266;2022-07-04T01:14:25;22.50;92.10
4425;DHT22;2225;53.568;13.266;2022-07-04T01:16:52;22.50;92.30
4425;DHT22;2225;53.568;13.266;2022-07-04T01:19:19;22.50;92.10
4425;DHT22;2225;53.568;13.266;2022-07-04T01:21:46;22.40;92.00
4425;DHT22;2225;53.568;13.266;2022-07-04T01:24:13;22.40;92.00
4425;DHT22;2225;53.568;13.266;2022-07-04T01:26:40;22.40;92.20
4425;DHT22;2225;53.568;13.266;2022-07-04T01:29:07;22.40;92.30
4425;DHT22;2225;53.568;13.266;2022-07-04T01:31:34;22.40;92.30
4425;DHT22;2225;53.568;13.266;2022-07-04T01:34:01;22.30;92.30
4425;DHT22;2225;53.568;13.266;2022-07-04T01:36:27;22.30;92.20
4425;DHT22;2225;53.568;13.266;2022-07-04T01:38:54;22.30;92.30
4425;DHT22;2225;53.568;13.266;2022-07-04T01:41:23;22.30;92.30
4425;DHT22;2225;53.568;13.266;2022-07-04T01:43:50;22.30;92.40
4425;DHT22;2225;53.568;13.266;2022-07-04T01:46:17;22.20;92.50
4425;DHT22;2225;53.568;13.266;2022-07-04T01:48:44;22.20;92.40
4425;DHT22;2225;53.568;13.266;2022-07-04T01:51:11;22.20;92.20
4425;DHT22;2225;53.568;13.266;2022-07-04T01:53:38;22.20;92.20
4425;DHT22;2225;53.568;13.266;2022-07-04T01:56:05;22.10;92.20
4425;DHT22;2225;53.568;13.266;2022-07-04T01:58:32;22.10;92.30
4425;DHT22;2225;53.568;13.266;2022-07-04T02:00:59;22.10;92.70
4425;DHT22;2225;53.568;13.266;2022-07-04T02:03:45;22.10;92.40
4425;DHT22;2225;53.568;13.266;2022-07-04T02:06:12;22.00;92.40
4425;DHT22;2225;53.568;13.266;2022-07-04T02:08:39;22.00;92.40
4425;DHT22;2225;53.568;13.266;2022-07-04T02:11:24;22.00;92.40
4425;DHT22;2225;53.568;13.266;2022-07-04T02:13:52;22.00;92.40
4425;DHT22;2225;53.568;13.266;2022-07-04T02:16:19;22.00;92.50
4425;DHT22;2225;53.568;13.266;2022-07-04T02:18:46;21.90;92.50
4425;DHT22;2225;53.568;13.266;2022-07-04T02:21:13;21.90;92.50
4425;DHT22;2225;53.568;13.266;2022-07-04T02:23:39;21.90;92.50
4425;DHT22;2225;53.568;13.266;2022-07-04T02:26:06;21.80;92.50
4425;DHT22;2225;53.568;13.266;2022-07-04T02:28:34;21.80;92.60
4425;DHT22;2225;53.568;13.266;2022-07-04T02:31:01;21.80;92.60
4425;DHT22;2225;53.568;13.266;2022-07-04T02:33:28;21.70;92.60
4425;DHT22;2225;53.568;13.266;2022-07-04T02:35:55;21.60;92.60
4425;DHT22;2225;53.568;13.266;2022-07-04T02:38:22;21.60;92.60
4425;DHT22;2225;53.568;13.266;2022-07-04T02:40:49;21.60;92.60
4425;DHT22;2225;53.568;13.266;2022-07-04T02:43:16;21.50;92.70
4425;DHT22;2225;53.568;13.266;2022-07-04T02:45:43;21.50;92.70
4425;DHT22;2225;53.568;13.266;2022-07-04T02:48:09;21.40;92.70
4425;DHT22;2225;53.568;13.266;2022-07-04T02:50:36;21.30;92.60
4425;DHT22;2225;53.568;13.266;2022-07-04T02:53:03;21.30;92.70
4425;DHT22;2225;53.568;13.266;2022-07-04T02:55:30;21.30;92.80
4425;DHT22;2225;53.568;13.266;2022-07-04T02:57:57;21.20;92.80
4425;DHT22;2225;53.568;13.266;2022-07-04T03:00:24;21.20;92.90
4425;DHT22;2225;53.568;13.266;2022-07-04T03:02:51;21.10;92.90
4425;DHT22;2225;53.568;13.266;2022-07-04T03:05:20;21.10;92.90
4425;DHT22;2225;53.568;13.266;2022-07-04T03:07:47;21.00;93.00
4425;DHT22;2225;53.568;13.266;2022-07-04T03:10:14;21.00;93.10
4425;DHT22;2225;53.568;13.266;2022-07-04T03:12:41;21.00;93.10
4425;DHT22;2225;53.568;13.266;2022-07-04T03:15:08;21.00;93.50
4425;DHT22;2225;53.568;13.266;2022-07-04T03:17:35;21.00;93.60
4425;DHT22;2225;53.568;13.266;2022-07-04T03:20:02;21.00;93.70
4425;DHT22;2225;53.568;13.266;2022-07-04T03:22:29;21.00;94.00
4425;DHT22;2225;53.568;13.266;2022-07-04T03:24:56;21.00;93.80
4425;DHT22;2225;53.568;13.266;2022-07-04T03:27:23;21.10;93.70
4425;DHT22;2225;53.568;13.266;2022-07-04T03:29:50;21.10;93.80
4425;DHT22;2225;53.568;13.266;2022-07-04T03:32:17;21.10;94.00
4425;DHT22;2225;53.568;13.266;2022-07-04T03:34:44;21.10;94.10
4425;DHT22;2225;53.568;13.266;2022-07-04T03:37:11;21.20;93.90
4425;DHT22;2225;53.568;13.266;2022-07-04T03:39:38;21.20;93.70
4425;DHT22;2225;53.568;13.266;2022-07-04T03:42:05;21.20;93.70
4425;DHT22;2225;53.568;13.266;2022-07-04T03:44:32;21.20;93.60
4425;DHT22;2225;53.568;13.266;2022-07-04T03:47:00;21.20;93.50
4425;DHT22;2225;53.568;13.266;2022-07-04T03:49:27;21.20;93.60
4425;DHT22;2225;53.568;13.266;2022-07-04T03:51:54;21.20;93.50
4425;DHT22;2225;53.568;13.266;2022-07-04T03:54:21;21.20;93.50
4425;DHT22;2225;53.568;13.266;2022-07-04T03:56:48;21.10;93.50
4425;DHT22;2225;53.568;13.266;2022-07-04T03:59:15;21.10;93.60
4425;DHT22;2225;53.568;13.266;2022-07-04T04:01:42;21.10;93.70
4425;DHT22;2225;53.568;13.266;2022-07-04T04:04:09;21.10;94.10
4425;DHT22;2225;53.568;13.266;2022-07-04T04:06:55;21.10;94.30
4425;DHT22;2225;53.568;13.266;2022-07-04T04:09:22;21.20;94.60
4425;DHT22;2225;53.568;13.266;2022-07-04T04:11:51;21.30;94.70
4425;DHT22;2225;53.568;13.266;2022-07-04T04:14:18;21.50;94.90
4425;DHT22;2225;53.568;13.266;2022-07-04T04:16:45;21.70;94.60
4425;DHT22;2225;53.568;13.266;2022-07-04T04:19:12;21.90;94.40
4425;DHT22;2225;53.568;13.266;2022-07-04T04:21:39;22.20;94.00
4425;DHT22;2225;53.568;13.266;2022-07-04T04:24:06;22.40;93.60
4425;DHT22;2225;53.568;13.266;2022-07-04T04:26:34;22.60;92.90
4425;DHT22;2225;53.568;13.266;2022-07-04T04:29:01;22.80;92.70
4425;DHT22;2225;53.568;13.266;2022-07-04T04:31:29;23.00;92.20
4425;DHT22;2225;53.568;13.266;2022-07-04T04:33:57;23.20;91.70
4425;DHT22;2225;53.568;13.266;2022-07-04T04:36:24;23.40;91.30
4425;DHT22;2225;53.568;13.266;2022-07-04T04:38:51;23.50;91.40
4425;DHT22;2225;53.568;13.266;2022-07-04T04:41:18;23.60;90.30
4425;DHT22;2225;53.568;13.266;2022-07-04T04:43:45;23.70;90.20
4425;DHT22;2225;53.568;13.266;2022-07-04T04:46:18;23.80;90.10
4425;DHT22;2225;53.568;13.266;2022-07-04T04:48:45;23.90;89.70
4425;DHT22;2225;53.568;13.266;2022-07-04T04:51:12;23.90;89.00
4425;DHT22;2225;53.568;13.266;2022-07-04T04:53:39;23.90;88.40
4425;DHT22;2225;53.568;13.266;2022-07-04T04:56:06;23.90;87.60
4425;DHT22;2225;53.568;13.266;2022-07-04T04:58:33;23.80;87.30
4425;DHT22;2225;53.568;13.266;2022-07-04T05:01:00;23.70;87.40
4425;DHT22;2225;53.568;13.266;2022-07-04T05:03:49;23.60;87.80
4425;DHT22;2225;53.568;13.266;2022-07-04T05:06:16;23.50;88.40
4425;DHT22;2225;53.568;13.266;2022-07-04T05:08:45;23.40;88.70
4425;DHT22;2225;53.568;13.266;2022-07-04T05:11:12;23.30;88.90
4425;DHT22;2225;53.568;13.266;2022-07-04T05:13:39;23.20;88.90
4425;DHT22;2225;53.568;13.266;2022-07-04T05:16:06;23.10;89.20
4425;DHT22;2225;53.568;13.266;2022-07-04T05:18:33;23.10;89.40
4425;DHT22;2225;53.568;13.266;2022-07-04T05:21:00;23.00;89.20
4425;DHT22;2225;53.568;13.266;2022-07-04T05:23:27;23.00;89.30
4425;DHT22;2225;53.568;13.266;2022-07-04T05:25:54;23.00;89.70
4425;DHT22;2225;53.568;13.266;2022-07-04T05:28:21;22.90;90.00
4425;DHT22;2225;53.568;13.266;2022-07-04T05:30:47;22.90;90.20
4425;DHT22;2225;53.568;13.266;2022-07-04T05:33:15;22.90;90.00
4425;DHT22;2225;53.568;13.266;2022-07-04T05:35:42;22.90;90.10
4425;DHT22;2225;53.568;13.266;2022-07-04T05:38:09;22.90;90.20
4425;DHT22;2225;53.568;13.266;2022-07-04T05:40:36;22.90;90.10
4425;DHT22;2225;53.568;13.266;2022-07-04T05:43:03;23.00;90.30
4425;DHT22;2225;53.568;13.266;2022-07-04T05:45:30;23.10;90.10
4425;DHT22;2225;53.568;13.266;2022-07-04T05:47:57;23.10;89.90
4425;DHT22;2225;53.568;13.266;2022-07-04T05:50:24;23.10;89.30
4425;DHT22;2225;53.568;13.266;2022-07-04T05:52:58;23.20;89.30
4425;DHT22;2225;53.568;13.266;2022-07-04T05:55:24;23.20;88.80
4425;DHT22;2225;53.568;13.266;2022-07-04T05:57:51;23.20;88.50
4425;DHT22;2225;53.568;13.266;2022-07-04T06:00:19;23.20;89.00
4425;DHT22;2225;53.568;13.266;2022-07-04T06:02:46;23.20;88.50
4425;DHT22;2225;53.568;13.266;2022-07-04T06:05:13;23.20;88.50
4425;DHT22;2225;53.568;13.266;2022-07-04T06:07:40;23.20;87.80
4425;DHT22;2225;53.568;13.266;2022-07-04T06:10:09;23.30;88.20
4425;DHT22;2225;53.568;13.266;2022-07-04T06:12:36;23.30;87.80
4425;DHT22;2225;53.568;13.266;2022-07-04T06:15:04;23.30;88.00
4425;DHT22;2225;53.568;13.266;2022-07-04T06:17:32;23.40;88.70
4425;DHT22;2225;53.568;13.266;2022-07-04T06:19:59;23.40;88.50
4425;DHT22;2225;53.568;13.266;2022-07-04T06:22:26;23.50;88.20
4425;DHT22;2225;53.568;13.266;2022-07-04T06:24:53;23.50;87.50
4425;DHT22;2225;53.568;13.266;2022-07-04T06:27:20;23.60;87.60
4425;DHT22;2225;53.568;13.266;2022-07-04T06:29:47;23.60;87.70
4425;DHT22;2225;53.568;13.266;2022-07-04T06:32:14;23.70;87.20
4425;DHT22;2225;53.568;13.266;2022-07-04T06:34:41;23.70;86.90
4425;DHT22;2225;53.568;13.266;2022-07-04T06:37:26;23.80;85.80
4425;DHT22;2225;53.568;13.266;2022-07-04T06:39:53;23.80;85.40
4425;DHT22;2225;53.568;13.266;2022-07-04T06:42:20;23.80;85.00
4425;DHT22;2225;53.568;13.266;2022-07-04T06:44:49;23.80;85.60
4425;DHT22;2225;53.568;13.266;2022-07-04T06:47:16;23.90;85.70
4425;DHT22;2225;53.568;13.266;2022-07-04T06:49:43;23.90;85.60
4425;DHT22;2225;53.568;13.266;2022-07-04T06:52:10;23.90;84.30
4425;DHT22;2225;53.568;13.266;2022-07-04T06:54:37;24.00;84.90
4425;DHT22;2225;53.568;13.266;2022-07-04T06:57:04;24.00;84.30
4425;DHT22;2225;53.568;13.266;2022-07-04T06:59:51;24.00;84.10
4425;DHT22;2225;53.568;13.266;2022-07-04T07:02:18;24.00;84.70
4425;DHT22;2225;53.568;13.266;2022-07-04T07:04:45;24.00;84.40
4425;DHT22;2225;53.568;13.266;2022-07-04T07:07:12;24.00;84.60
4425;DHT22;2225;53.568;13.266;2022-07-04T07:09:39;24.10;83.50
4425;DHT22;2225;53.568;13.266;2022-07-04T07:12:06;24.10;83.60
4425;DHT22;2225;53.568;13.266;2022-07-04T07:14:33;24.10;84.10
4425;DHT22;2225;53.568;13.266;2022-07-04T07:17:00;24.20;83.40
4425;DHT22;2225;53.568;13.266;2022-07-04T07:19:27;24.20;82.40
4425;DHT22;2225;53.568;13.266;2022-07-04T07:21:54;24.20;81.40
4425;DHT22;2225;53.568;13.266;2022-07-04T07:24:21;24.20;80.90
4425;DHT22;2225;53.568;13.266;2022-07-04T07:26:50;24.20;80.50
4425;DHT22;2225;53.568;13.266;2022-07-04T07:29:17;24.20;80.60
4425;DHT22;2225;53.568;13.266;2022-07-04T07:31:44;24.30;81.30
4425;DHT22;2225;53.568;13.266;2022-07-04T07:34:11;24.30;80.90
4425;DHT22;2225;53.568;13.266;2022-07-04T07:36:38;24.40;80.70
4425;DHT22;2225;53.568;13.266;2022-07-04T07:39:05;24.40;80.30
4425;DHT22;2225;53.568;13.266;2022-07-04T07:41:32;24.40;80.70
4425;DHT22;2225;53.568;13.266;2022-07-04T07:43:59;24.40;80.00
4425;DHT22;2225;53.568;13.266;2022-07-04T07:46:26;24.40;79.20
4425;DHT22;2225;53.568;13.266;2022-07-04T07:48:53;24.40;79.40
4425;DHT22;2225;53.568;13.266;2022-07-04T07:51:20;24.60;78.90
4425;DHT22;2225;53.568;13.266;2022-07-04T07:53:47;24.60;79.30
4425;DHT22;2225;53.568;13.266;2022-07-04T07:56:34;24.70;78.60
4425;DHT22;2225;53.568;13.266;2022-07-04T07:59:01;24.80;77.70
4425;DHT22;2225;53.568;13.266;2022-07-04T08:01:28;24.80;77.50
4425;DHT22;2225;53.568;13.266;2022-07-04T08:03:55;24.80;77.20
4425;DHT22;2225;53.568;13.266;2022-07-04T08:06:47;24.90;77.30
4425;DHT22;2225;53.568;13.266;2022-07-04T08:09:35;24.90;76.00
4425;DHT22;2225;53.568;13.266;2022-07-04T08:12:04;25.00;75.80
4425;DHT22;2225;53.568;13.266;2022-07-04T08:14:33;25.00;75.60
4425;DHT22;2225;53.568;13.266;2022-07-04T08:17:01;25.10;74.70
4425;DHT22;2225;53.568;13.266;2022-07-04T08:19:29;25.10;74.60
4425;DHT22;2225;53.568;13.266;2022-07-04T08:21:56;25.20;74.40
4425;DHT22;2225;53.568;13.266;2022-07-04T08:24:40;25.20;72.40
4425;DHT22;2225;53.568;13.266;2022-07-04T08:27:07;25.20;72.10
4425;DHT22;2225;53.568;13.266;2022-07-04T08:29:34;25.30;70.90
4425;DHT22;2225;53.568;13.266;2022-07-04T08:32:02;25.30;70.80
4425;DHT22;2225;53.568;13.266;2022-07-04T08:34:29;25.30;71.70
4425;DHT22;2225;53.568;13.266;2022-07-04T08:36:56;25.40;72.00
4425;DHT22;2225;53.568;13.266;2022-07-04T08:39:23;25.50;70.60
4425;DHT22;2225;53.568;13.266;2022-07-04T08:41:52;25.50;70.80
4425;DHT22;2225;53.568;13.266;2022-07-04T08:44:19;25.60;69.80
4425;DHT22;2225;53.568;13.266;2022-07-04T08:46:51;25.60;69.00
4425;DHT22;2225;53.568;13.266;2022-07-04T08:49:24;25.60;68.30
4425;DHT22;2225;53.568;13.266;2022-07-04T08:52:04;25.70;68.10
4425;DHT22;2225;53.568;13.266;2022-07-04T08:54:33;25.70;66.40
4425;DHT22;2225;53.568;13.266;2022-07-04T08:57:19;25.80;67.50
4425;DHT22;2225;53.568;13.266;2022-07-04T09:00:06;25.80;66.50
4425;DHT22;2225;53.568;13.266;2022-07-04T09:02:34;25.90;66.80
4425;DHT22;2225;53.568;13.266;2022-07-04T09:05:03;25.90;66.30
4425;DHT22;2225;53.568;13.266;2022-07-04T09:07:31;26.00;65.60
4425;DHT22;2225;53.568;13.266;2022-07-04T09:09:58;26.00;65.00
4425;DHT22;2225;53.568;13.266;2022-07-04T09:12:26;26.00;63.60
4425;DHT22;2225;53.568;13.266;2022-07-04T09:14:53;26.10;63.00
4425;DHT22;2225;53.568;13.266;2022-07-04T09:17:20;26.10;64.20
4425;DHT22;2225;53.568;13.266;2022-07-04T09:20:25;26.10;62.00
4425;DHT22;2225;53.568;13.266;2022-07-04T09:22:54;26.20;60.60
4425;DHT22;2225;53.568;13.266;2022-07-04T09:25:22;26.20;62.20
4425;DHT22;2225;53.568;13.266;2022-07-04T09:27:53;26.30;62.60
4425;DHT22;2225;53.568;13.266;2022-07-04T09:30:26;26.40;60.80
4425;DHT22;2225;53.568;13.266;2022-07-04T09:32:56;26.50;60.60
4425;DHT22;2225;53.568;13.266;2022-07-04T09:35:29;26.70;61.50
4425;DHT22;2225;53.568;13.266;2022-07-04T09:38:00;26.70;60.20
4425;DHT22;2225;53.568;13.266;2022-07-04T09:40:35;26.80;60.00
4425;DHT22;2225;53.568;13.266;2022-07-04T09:43:25;26.80;59.90
4425;DHT22;2225;53.568;13.266;2022-07-04T09:45:59;26.90;60.00
4425;DHT22;2225;53.568;13.266;2022-07-04T09:48:48;26.90;59.30
4425;DHT22;2225;53.568;13.266;2022-07-04T09:54:29;26.90;60.30
4425;DHT22;2225;53.568;13.266;2022-07-04T09:57:01;27.00;58.90
4425;DHT22;2225;53.568;13.266;2022-07-04T09:59:30;27.00;59.00
4425;DHT22;2225;53.568;13.266;2022-07-04T10:02:08;27.10;58.20
4425;DHT22;2225;53.568;13.266;2022-07-04T10:04:45;27.20;56.80
4425;DHT22;2225;53.568;13.266;2022-07-04T10:07:40;27.20;57.20
4425;DHT22;2225;53.568;13.266;2022-07-04T10:10:28;27.30;57.70
4425;DHT22;2225;53.568;13.266;2022-07-04T10:13:02;27.30;56.70
4425;DHT22;2225;53.568;13.266;2022-07-04T10:15:32;27.30;56.00
4425;DHT22;2225;53.568;13.266;2022-07-04T10:18:00;27.20;56.60
4425;DHT22;2225;53.568;13.266;2022-07-04T10:20:27;27.20;56.80
4425;DHT22;2225;53.568;13.266;2022-07-04T10:22:54;27.10;56.20
4425;DHT22;2225;53.568;13.266;2022-07-04T10:25:21;27.00;55.30
4425;DHT22;2225;53.568;13.266;2022-07-04T10:27:48;26.90;56.20
4425;DHT22;2225;53.568;13.266;2022-07-04T10:30:23;26.90;55.20
4425;DHT22;2225;53.568;13.266;2022-07-04T10:32:53;26.90;56.30
4425;DHT22;2225;53.568;13.266;2022-07-04T10:38:13;26.90;55.30
4425;DHT22;2225;53.568;13.266;2022-07-04T10:40:48;26.80;55.80
4425;DHT22;2225;53.568;13.266;2022-07-04T10:48:55;27.00;57.50
4425;DHT22;2225;53.568;13.266;2022-07-04T10:51:40;27.10;56.10
4425;DHT22;2225;53.568;13.266;2022-07-04T10:54:51;27.10;56.70
4425;DHT22;2225;53.568;13.266;2022-07-04T10:57:22;27.20;55.50
4425;DHT22;2225;53.568;13.266;2022-07-04T11:02:26;27.40;56.20
4425;DHT22;2225;53.568;13.266;2022-07-04T11:17:52;27.50;52.60
4425;DHT22;2225;53.568;13.266;2022-07-04T11:20:20;27.50;53.50
4425;DHT22;2225;53.568;13.266;2022-07-04T11:22:48;27.50;53.90
4425;DHT22;2225;53.568;13.266;2022-07-04T11:25:15;27.50;54.00
4425;DHT22;2225;53.568;13.266;2022-07-04T11:27:43;27.50;53.30
4425;DHT22;2225;53.568;13.266;2022-07-04T11:30:10;27.60;53.70
4425;DHT22;2225;53.568;13.266;2022-07-04T11:32:41;27.60;52.90
4425;DHT22;2225;53.568;13.266;2022-07-04T11:35:08;27.70;52.50
4425;DHT22;2225;53.568;13.266;2022-07-04T11:37:35;27.80;52.90
4425;DHT22;2225;53.568;13.266;2022-07-04T11:40:03;27.90;51.80
4425;DHT22;2225;53.568;13.266;2022-07-04T11:43:05;28.10;51.60
4425;DHT22;2225;53.568;13.266;2022-07-04T11:45:53;28.20;52.30
4425;DHT22;2225;53.568;13.266;2022-07-04T11:48:27;28.30;50.90
4425;DHT22;2225;53.568;13.266;2022-07-04T11:50:54;28.40;50.00
4425;DHT22;2225;53.568;13.266;2022-07-04T11:53:21;28.40;51.10
4425;DHT22;2225;53.568;13.266;2022-07-04T11:55:57;28.40;50.70
4425;DHT22;2225;53.568;13.266;2022-07-04T11:58:40;28.40;51.10
4425;DHT22;2225;53.568;13.266;2022-07-04T12:01:11;28.40;50.80
4425;DHT22;2225;53.568;13.266;2022-07-04T12:03:38;28.40;51.40
4425;DHT22;2225;53.568;13.266;2022-07-04T12:06:05;28.40;51.50
4425;DHT22;2225;53.568;13.266;2022-07-04T12:08:32;28.50;49.90
4425;DHT22;2225;53.568;13.266;2022-07-04T12:10:59;28.60;49.90
4425;DHT22;2225;53.568;13.266;2022-07-04T12:13:26;28.70;49.20
4425;DHT22;2225;53.568;13.266;2022-07-04T12:15:53;28.90;48.80
4425;DHT22;2225;53.568;13.266;2022-07-04T12:18:28;28.90;45.60
4425;DHT22;2225;53.568;13.266;2022-07-04T12:21:15;29.00;47.70
4425;DHT22;2225;53.568;13.266;2022-07-04T12:23:53;29.10;47.80
4425;DHT22;2225;53.568;13.266;2022-07-04T12:26:48;29.20;48.30
4425;DHT22;2225;53.568;13.266;2022-07-04T12:29:24;29.20;47.90
4425;DHT22;2225;53.568;13.266;2022-07-04T12:31:58;29.30;47.80
4425;DHT22;2225;53.568;13.266;2022-07-04T12:34:25;29.30;48.40
4425;DHT22;2225;53.568;13.266;2022-07-04T12:39:35;29.40;46.70
4425;DHT22;2225;53.568;13.266;2022-07-04T12:42:06;29.40;46.30
4425;DHT22;2225;53.568;13.266;2022-07-04T12:44:34;29.40;46.30
4425;DHT22;2225;53.568;13.266;2022-07-04T12:47:03;29.40;46.80
4425;DHT22;2225;53.568;13.266;2022-07-04T12:49:45;29.50;46.80
4425;DHT22;2225;53.568;13.266;2022-07-04T12:52:15;29.50;46.60
4425;DHT22;2225;53.568;13.266;2022-07-04T12:54:43;29.60;47.80
4425;DHT22;2225;53.568;13.266;2022-07-04T12:57:15;29.70;46.00
4425;DHT22;2225;53.568;13.266;2022-07-04T12:59:44;29.80;46.60
4425;DHT22;2225;53.568;13.266;2022-07-04T13:02:13;29.90;45.80
4425;DHT22;2225;53.568;13.266;2022-07-04T13:04:41;29.90;46.20
4425;DHT22;2225;53.568;13.266;2022-07-04T13:07:13;30.00;45.60
4425;DHT22;2225;53.568;13.266;2022-07-04T13:09:42;30.00;43.50
4425;DHT22;2225;53.568;13.266;2022-07-04T13:12:11;30.00;44.20
4425;DHT22;2225;53.568;13.266;2022-07-04T13:14:57;30.00;44.00
4425;DHT22;2225;53.568;13.266;2022-07-04T13:17:26;30.00;43.00
4425;DHT22;2225;53.568;13.266;2022-07-04T13:19:53;30.00;43.40
4425;DHT22;2225;53.568;13.266;2022-07-04T13:22:21;30.00;43.60
4425;DHT22;2225;53.568;13.266;2022-07-04T13:24:50;30.00;43.30
4425;DHT22;2225;53.568;13.266;2022-07-04T13:27:17;30.00;44.20
4425;DHT22;2225;53.568;13.266;2022-07-04T13:29:45;30.00;45.10
4425;DHT22;2225;53.568;13.266;2022-07-04T13:32:12;30.00;44.60
4425;DHT22;2225;53.568;13.266;2022-07-04T13:34:40;29.90;43.80
4425;DHT22;2225;53.568;13.266;2022-07-04T13:37:07;30.00;44.10
4425;DHT22;2225;53.568;13.266;2022-07-04T13:39:33;29.90;44.40
4425;DHT22;2225;53.568;13.266;2022-07-04T13:42:18;30.00;44.10
4425;DHT22;2225;53.568;13.266;2022-07-04T13:45:05;30.00;43.60
4425;DHT22;2225;53.568;13.266;2022-07-04T13:47:32;29.90;43.20
4425;DHT22;2225;53.568;13.266;2022-07-04T13:49:59;29.80;42.70
4425;DHT22;2225;53.568;13.266;2022-07-04T13:52:26;29.80;43.50
4425;DHT22;2225;53.568;13.266;2022-07-04T13:54:54;29.70;43.40
4425;DHT22;2225;53.568;13.266;2022-07-04T13:57:20;29.60;43.30
4425;DHT22;2225;53.568;13.266;2022-07-04T13:59:47;29.50;43.40
4425;DHT22;2225;53.568;13.266;2022-07-04T14:02:14;29.50;43.00
4425;DHT22;2225;53.568;13.266;2022-07-04T14:04:41;29.50;43.20
4425;DHT22;2225;53.568;13.266;2022-07-04T14:07:08;29.50;42.70
4425;DHT22;2225;53.568;13.266;2022-07-04T14:09:44;29.40;43.30
4425;DHT22;2225;53.568;13.266;2022-07-04T14:12:12;29.40;44.30
4425;DHT22;2225;53.568;13.266;2022-07-04T14:14:40;29.30;43.70
4425;DHT22;2225;53.568;13.266;2022-07-04T14:17:07;29.30;44.70
4425;DHT22;2225;53.568;13.266;2022-07-04T14:19:54;29.30;44.90
4425;DHT22;2225;53.568;13.266;2022-07-04T14:22:22;29.30;44.70
4425;DHT22;2225;53.568;13.266;2022-07-04T14:24:49;29.30;44.60
4425;DHT22;2225;53.568;13.266;2022-07-04T14:27:16;29.40;45.20
4425;DHT22;2225;53.568;13.266;2022-07-04T14:29:43;29.40;45.00
4425;DHT22;2225;53.568;13.266;2022-07-04T14:32:10;29.40;43.90
4425;DHT22;2225;53.568;13.266;2022-07-04T14:34:37;29.40;44.80
4425;DHT22;2225;53.568;13.266;2022-07-04T14:37:04;29.40;43.40
4425;DHT22;2225;53.568;13.266;2022-07-04T14:39:31;29.40;43.70
4425;DHT22;2225;53.568;13.266;2022-07-04T14:41:58;29.30;44.30
4425;DHT22;2225;53.568;13.266;2022-07-04T14:44:25;29.30;44.20
4425;DHT22;2225;53.568;13.266;2022-07-04T14:46:52;29.30;44.40
4425;DHT22;2225;53.568;13.266;2022-07-04T14:49:19;29.20;44.40
4425;DHT22;2225;53.568;13.266;2022-07-04T14:51:46;29.20;44.20
4425;DHT22;2225;53.568;13.266;2022-07-04T14:54:13;29.20;43.70
4425;DHT22;2225;53.568;13.266;2022-07-04T14:56:40;29.20;43.30
4425;DHT22;2225;53.568;13.266;2022-07-04T14:59:07;29.20;43.10
4425;DHT22;2225;53.568;13.266;2022-07-04T15:01:33;29.30;43.50
4425;DHT22;2225;53.568;13.266;2022-07-04T15:04:00;29.20;43.70
4425;DHT22;2225;53.568;13.266;2022-07-04T15:06:27;29.30;43.80
4425;DHT22;2225;53.568;13.266;2022-07-04T15:08:54;29.30;44.60
4425;DHT22;2225;53.568;13.266;2022-07-04T15:11:22;29.40;44.50
4425;DHT22;2225;53.568;13.266;2022-07-04T15:13:49;29.40;43.50
4425;DHT22;2225;53.568;13.266;2022-07-04T15:16:16;29.40;43.50
4425;DHT22;2225;53.568;13.266;2022-07-04T15:18:50;29.40;42.80
4425;DHT22;2225;53.568;13.266;2022-07-04T15:21:18;29.40;43.50
4425;DHT22;2225;53.568;13.266;2022-07-04T15:24:04;29.50;44.80
4425;DHT22;2225;53.568;13.266;2022-07-04T15:26:48;29.50;44.20
4425;DHT22;2225;53.568;13.266;2022-07-04T15:29:18;29.50;44.70
4425;DHT22;2225;53.568;13.266;2022-07-04T15:31:47;29.60;44.70
4425;DHT22;2225;53.568;13.266;2022-07-04T15:34:16;29.60;44.10
4425;DHT22;2225;53.568;13.266;2022-07-04T15:36:43;29.50;44.40
4425;DHT22;2225;53.568;13.266;2022-07-04T15:39:12;29.50;44.30
4425;DHT22;2225;53.568;13.266;2022-07-04T15:41:40;29.50;44.70
4425;DHT22;2225;53.568;13.266;2022-07-04T15:44:08;29.40;44.90
4425;DHT22;2225;53.568;13.266;2022-07-04T15:46:35;29.40;44.90
4425;DHT22;2225;53.568;13.266;2022-07-04T15:49:22;29.40;44.80
4425;DHT22;2225;53.568;13.266;2022-07-04T15:51:49;29.40;45.00
4425;DHT22;2225;53.568;13.266;2022-07-04T15:54:16;29.40;45.60
4425;DHT22;2225;53.568;13.266;2022-07-04T15:56:43;29.40;46.00
4425;DHT22;2225;53.568;13.266;2022-07-04T15:59:10;29.50;44.70
4425;DHT22;2225;53.568;13.266;2022-07-04T16:01:37;29.40;44.80
4425;DHT22;2225;53.568;13.266;2022-07-04T16:04:04;29.40;45.30
4425;DHT22;2225;53.568;13.266;2022-07-04T16:06:31;29.40;45.00
4425;DHT22;2225;53.568;13.266;2022-07-04T16:08:58;29.30;46.30
4425;DHT22;2225;53.568;13.266;2022-07-04T16:11:25;29.30;46.70
4425;DHT22;2225;53.568;13.266;2022-07-04T16:13:52;29.40;46.60
4425;DHT22;2225;53.568;13.266;2022-07-04T16:16:20;29.50;46.10
4425;DHT22;2225;53.568;13.266;2022-07-04T16:18:48;29.60;45.70
4425;DHT22;2225;53.568;13.266;2022-07-04T16:21:15;29.60;45.50
4425;DHT22;2225;53.568;13.266;2022-07-04T16:23:43;29.70;45.10
4425;DHT22;2225;53.568;13.266;2022-07-04T16:26:09;29.70;45.50
4425;DHT22;2225;53.568;13.266;2022-07-04T16:28:36;29.80;45.90